Time;durP1;ratioP1;P1;durP2;ratioP2;P2;SDS_P1;SDS_P2;PMS_P1;PMS_P2;Temp;Humidity;BMP_temperature;BMP_pressure;BME280_temperature;BME280_humidity;BME280_pressure;Samples;Min_cycle;Max_cycle;Signal;HPM_P1;HPM_P2
2021/05/21 00:00:10;;;;;;;8.97;2.67;;;13.10;19.10;217.30;162872.00;;;;4965557;28;20471;-88
2021/05/21 00:02:41;;;;;;;3.10;2.50;;;13.10;21.00;14.30;100241.00;;;;4967778;28;20459;-90
2021/05/21 00:05:11;;;;;;;3.20;2.90;;;13.00;21.30;14.30;100234.00;;;;4986187;28;20462;-89
2021/05/21 00:07:40;;;;;;;4.50;2.40;;;13.00;20.50;14.20;100210.00;;;;4987382;28;20431;-90
2021/05/21 00:10:10;;;;;;;3.70;2.50;;;13.10;20.60;14.20;100200.00;;;;4993533;28;20447;-89
2021/05/21 00:12:38;;;;;;;3.60;2.60;;;13.00;20.40;14.30;100226.00;;;;4988927;28;20463;-89
2021/05/21 00:15:09;;;;;;;3.20;2.53;;;13.00;19.00;217.30;162826.00;;;;4985153;28;20463;-90
2021/05/21 00:17:38;;;;;;;2.77;2.43;;;13.00;18.80;14.20;100187.00;;;;4985740;28;20451;-90
2021/05/21 00:20:13;;;;;;;2.67;2.47;;;13.00;19.60;14.20;100196.00;;;;4985893;28;20543;-90
2021/05/21 00:22:42;;;;;;;4.43;2.80;;;13.00;18.80;14.10;100174.00;;;;5002333;28;20455;-89
2021/05/21 00:25:11;;;;;;;4.10;2.60;;;13.00;19.40;217.30;162779.00;;;;5004570;28;20485;-89
2021/05/21 00:27:39;;;;;;;2.80;2.50;;;12.90;22.40;217.30;162753.00;;;;5003356;28;20455;-89
2021/05/21 00:30:08;;;;;;;3.77;2.20;;;13.00;22.10;14.10;100170.00;;;;4993283;28;20960;-86
2021/05/21 00:32:37;;;;;;;3.00;2.30;;;12.90;23.80;217.30;162660.00;;;;4978278;28;20451;-86
2021/05/21 00:35:05;;;;;;;3.93;3.10;;;12.80;25.40;52.70;162634.00;;;;4982691;28;20517;-88
2021/05/21 00:37:35;;;;;;;3.67;2.67;;;12.70;25.90;217.30;162675.00;;;;5004406;28;20419;-88
2021/05/21 00:40:04;;;;;;;2.73;2.43;;;12.70;25.00;13.90;100038.00;;;;5004886;28;20468;-89
2021/05/21 00:42:33;;;;;;;2.80;2.53;;;12.60;25.10;217.30;162628.00;;;;5001612;28;20483;-89
2021/05/21 00:45:02;;;;;;;3.20;2.90;;;12.60;26.80;13.90;69305.00;;;;4985117;28;20555;-88
2021/05/21 00:47:30;;;;;;;3.77;2.50;;;12.60;26.40;217.30;162547.00;;;;4985247;28;20428;-88
2021/05/21 00:49:58;;;;;;;5.33;3.33;;;12.50;29.00;217.30;162547.00;;;;4996654;28;20483;-88
2021/05/21 00:52:28;;;;;;;3.30;2.57;;;12.40;30.80;217.30;162557.00;;;;4985225;28;20458;-85
2021/05/21 00:54:58;;;;;;;6.30;2.83;;;12.40;29.60;13.70;100179.00;;;;4983117;28;20471;-84
2021/05/21 00:57:26;;;;;;;4.40;2.80;;;12.40;30.00;13.90;100173.00;;;;4990768;28;20478;-85
2021/05/21 00:59:55;;;;;;;5.03;3.10;;;12.50;30.90;14.00;100119.00;;;;5000140;28;20484;-85
2021/05/21 01:02:23;;;;;;;4.10;2.90;;;12.50;30.90;52.70;162715.00;;;;4995853;28;20450;-85
2021/05/21 01:04:52;;;;;;;3.27;2.40;;;12.50;31.20;13.90;69351.00;;;;5002435;28;20501;-85
2021/05/21 01:07:21;;;;;;;3.03;2.67;;;12.50;30.60;217.30;162693.00;;;;5001529;28;20530;-85
2021/05/21 01:09:50;;;;;;;3.30;2.67;;;12.50;29.80;13.90;100132.00;;;;4981972;28;20458;-85
2021/05/21 01:12:21;;;;;;;3.10;2.47;;;12.70;30.20;13.90;100109.00;;;;5000472;28;20451;-85
2021/05/21 01:14:51;;;;;;;4.43;2.60;;;12.60;29.90;13.90;100079.00;;;;4982897;28;20813;-85
2021/05/21 01:17:21;;;;;;;5.50;2.50;;;12.60;30.20;217.30;162675.00;;;;4984636;28;20439;-85
2021/05/21 01:19:50;;;;;;;2.80;2.30;;;12.60;28.50;217.30;162660.00;;;;4993098;28;20459;-85
2021/05/21 01:22:21;;;;;;;3.50;2.47;;;12.60;28.20;13.90;100110.00;;;;5001091;28;20451;-85
2021/05/21 01:24:49;;;;;;;3.67;2.20;;;12.60;27.00;217.30;162743.00;;;;4992796;28;20484;-85
2021/05/21 01:27:18;;;;;;;3.63;2.17;;;12.60;26.60;14.10;100099.00;;;;5001683;28;20518;-85
2021/05/21 01:29:46;;;;;;;5.27;2.87;;;12.60;26.80;14.10;100124.00;;;;4987249;28;20446;-85
2021/05/21 01:32:14;;;;;;;2.53;2.33;;;12.60;26.70;14.00;100064.00;;;;5001510;28;20451;-84
2021/05/21 01:34:42;;;;;;;3.70;2.53;;;12.70;27.10;14.00;100114.00;;;;5015909;28;20434;-86
2021/05/21 01:37:15;;;;;;;3.60;2.30;;;12.70;28.30;14.10;100069.00;;;;5030438;28;20462;-86
2021/05/21 01:39:44;;;;;;;3.53;2.90;;;12.60;29.70;14.10;100095.00;;;;4984885;28;20470;-86
2021/05/21 01:42:13;;;;;;;5.77;2.43;;;12.70;30.20;14.00;100080.00;;;;4989002;28;20455;-86
2021/05/21 01:44:41;;;;;;;2.70;2.40;;;12.70;31.80;14.00;100053.00;;;;5007176;28;20479;-84
2021/05/21 01:47:11;;;;;;;3.27;2.60;;;12.60;31.70;14.10;100082.00;;;;5001022;28;20501;-84
2021/05/21 01:49:40;;;;;;;3.97;2.40;;;12.60;31.10;14.10;100057.00;;;;4988438;28;20527;-86
2021/05/21 01:52:08;;;;;;;3.43;2.27;;;12.70;29.60;14.00;100061.00;;;;4984522;28;20451;-85
2021/05/21 01:54:37;;;;;;;2.80;2.30;;;12.80;25.50;14.00;69365.00;;;;4978782;28;20473;-86
2021/05/21 01:57:06;;;;;;;3.33;2.33;;;12.70;26.50;13.90;100064.00;;;;4999798;28;20467;-86
2021/05/21 01:59:34;;;;;;;2.73;2.40;;;12.60;28.70;13.90;69351.00;;;;4987222;28;20444;-86
2021/05/21 02:02:02;;;;;;;3.10;2.43;;;12.60;28.60;13.60;100035.00;;;;4998587;28;20439;-89
2021/05/21 02:04:33;;;;;;;2.87;2.30;;;12.50;30.90;217.30;162634.00;;;;5005041;28;20466;-90
2021/05/21 02:07:01;;;;;;;4.43;2.30;;;12.40;31.50;217.30;162578.00;;;;4996134;28;20451;-90
2021/05/21 02:09:30;;;;;;;4.00;2.57;;;12.30;36.50;13.60;100063.00;;;;5000110;28;20436;-88
2021/05/21 02:12:06;;;;;;;7.90;2.77;;;12.20;38.70;13.70;100052.00;;;;5002994;28;20473;-88
2021/05/21 02:14:34;;;;;;;2.53;2.20;;;12.30;39.10;217.30;162594.00;;;;4996066;28;20463;-88
2021/05/21 02:17:02;;;;;;;5.27;2.77;;;12.20;38.80;13.70;100029.00;;;;4983177;28;20447;-89
2021/05/21 02:19:30;;;;;;;4.20;2.70;;;12.10;40.10;217.30;162594.00;;;;4983508;28;20480;-87
2021/05/21 02:21:59;;;;;;;5.00;2.90;;;12.10;40.80;13.50;69296.00;;;;4985985;28;20472;-89
2021/05/21 02:24:27;;;;;;;3.93;2.80;;;12.00;40.50;13.70;100003.00;;;;4990319;28;20452;-89
2021/05/21 02:26:55;;;;;;;4.67;3.13;;;12.00;41.30;13.70;100004.00;;;;4991348;28;20454;-88
2021/05/21 02:29:24;;;;;;;3.03;2.63;;;12.10;41.80;13.80;100020.00;;;;5007150;28;20513;-88
2021/05/21 02:31:52;;;;;;;3.43;2.83;;;12.10;41.50;217.30;162634.00;;;;4980501;28;20454;-88
2021/05/21 02:34:20;;;;;;;5.30;3.03;;;12.10;41.30;13.70;99891.00;;;;4961962;28;20452;-88
2021/05/21 02:36:48;;;;;;;3.53;2.50;;;12.20;42.00;52.70;162590.00;;;;4960842;28;20463;-87
2021/05/21 02:39:17;;;;;;;4.30;2.87;;;12.10;41.90;13.60;99965.00;;;;4977806;28;20458;-88
2021/05/21 02:41:44;;;;;;;5.43;3.37;;;12.00;42.50;13.50;99958.00;;;;4978756;28;21067;-89
2021/05/21 02:44:13;;;;;;;2.83;2.53;;;11.90;43.40;13.50;99959.00;;;;4968502;28;20485;-88
2021/05/21 02:46:42;;;;;;;3.10;2.57;;;11.80;43.00;217.30;162384.00;;;;4979691;28;20502;-88
2021/05/21 02:49:10;;;;;;;3.30;3.00;;;11.60;43.10;13.30;69220.00;;;;4990430;28;20497;-89
2021/05/21 02:51:38;;;;;;;4.37;3.40;;;11.70;42.60;13.30;99906.00;;;;4981896;28;20469;-88
2021/05/21 02:54:06;;;;;;;4.63;3.20;;;11.70;42.70;13.20;99962.00;;;;4968912;28;20464;-88
2021/05/21 02:56:34;;;;;;;3.97;3.03;;;11.60;42.60;13.10;99968.00;;;;4963482;28;20467;-88
2021/05/21 02:59:03;;;;;;;3.53;3.23;;;11.60;44.10;217.30;162330.00;;;;4964077;28;20443;-89
2021/05/21 03:01:31;;;;;;;7.27;3.60;;;11.60;44.60;217.30;162312.00;;;;4962404;28;20479;-90
2021/05/21 03:04:00;;;;;;;6.63;3.40;;;11.50;45.70;217.30;162283.00;;;;4980071;28;20466;-90
2021/05/21 03:06:30;;;;;;;6.20;3.07;;;11.50;45.40;13.00;99626.00;;;;4979082;28;20468;-90
2021/05/21 03:08:59;;;;;;;4.47;3.37;;;11.40;46.90;12.90;69132.00;;;;4990538;28;20460;-91
2021/05/21 03:11:27;;;;;;;3.50;3.20;;;11.40;48.00;12.90;99948.00;;;;5009239;28;20466;-90
2021/05/21 03:13:55;;;;;;;4.73;3.40;;;11.30;48.40;217.30;162223.00;;;;5000632;28;20486;-89
2021/05/21 03:16:23;;;;;;;4.03;3.47;;;11.40;48.60;12.80;69099.00;;;;4989148;28;20458;-91
2021/05/21 03:18:51;;;;;;;4.70;2.90;;;11.30;47.70;12.80;99895.00;;;;5001619;28;20478;-89
2021/05/21 03:21:21;;;;;;;3.13;1.80;;;11.40;43.30;52.70;162251.00;;;;4996078;28;20494;-88
2021/05/21 03:23:49;;;;;;;2.50;1.83;;;11.60;39.20;217.30;162324.00;;;;4969054;28;20451;-87
2021/05/21 03:26:17;;;;;;;2.77;1.40;;;11.90;32.40;13.10;99872.00;;;;4975585;28;20464;-90
2021/05/21 03:28:45;;;;;;;4.20;1.40;;;12.30;27.30;217.30;162449.00;;;;4964300;28;20494;-87
2021/05/21 03:31:13;;;;;;;2.50;1.70;;;12.40;24.70;217.30;162493.00;;;;4972102;28;20432;-88
2021/05/21 03:33:42;;;;;;;2.23;1.40;;;12.70;21.70;217.30;162541.00;;;;4988540;28;20473;-88
2021/05/21 03:36:10;;;;;;;3.33;1.40;;;12.90;20.90;13.70;69237.00;;;;4994244;28;20478;-89
2021/05/21 03:38:39;;;;;;;2.90;1.33;;;12.90;18.60;217.30;162628.00;;;;4972979;28;20475;-89
2021/05/21 03:41:08;;;;;;;1.90;1.10;;;13.10;17.40;13.80;99876.00;;;;4986977;28;20472;-89
2021/05/21 03:43:36;;;;;;;2.27;1.70;;;13.10;17.20;217.30;162557.00;;;;4968819;28;20452;-88
2021/05/21 03:46:04;;;;;;;2.80;1.30;;;13.10;16.50;217.30;162459.00;;;;4963919;28;20563;-89
2021/05/21 03:48:32;;;;;;;1.37;1.00;;;13.20;15.80;14.00;99781.00;;;;4963419;28;20518;-88
2021/05/21 03:51:01;;;;;;;2.97;1.33;;;13.30;14.70;217.30;162685.00;;;;4968047;28;20459;-89
2021/05/21 03:53:29;;;;;;;1.70;1.30;;;13.30;14.00;217.30;162731.00;;;;4978915;28;20530;-88
2021/05/21 03:55:58;;;;;;;1.40;1.00;;;13.40;13.50;52.70;162743.00;;;;4976346;28;20472;-88
2021/05/21 03:58:26;;;;;;;3.50;1.60;;;13.40;13.00;217.30;162763.00;;;;4961253;28;20468;-85
2021/05/21 04:00:55;;;;;;;3.13;1.37;;;13.40;12.70;217.30;162731.00;;;;4982347;28;20510;-86
2021/05/21 04:03:23;;;;;;;5.00;1.20;;;13.40;12.40;14.10;69307.00;;;;4980801;28;20451;-84
2021/05/21 04:05:51;;;;;;;2.07;1.10;;;13.60;12.20;217.30;162860.00;;;;4996817;28;20471;-86
2021/05/21 04:08:19;;;;;;;2.50;1.40;;;13.50;12.00;217.30;162816.00;;;;4997784;28;20503;-85
2021/05/21 04:10:47;;;;;;;4.30;1.40;;;13.60;11.70;217.30;162882.00;;;;4993754;28;20494;-85
2021/05/21 04:13:17;;;;;;;2.17;1.50;;;13.70;11.80;14.40;69467.00;;;;5003104;28;20451;-87
2021/05/21 04:15:45;;;;;;;3.73;1.40;;;13.70;11.60;14.40;99892.00;;;;4977151;28;20487;-87
2021/05/21 04:18:13;;;;;;;2.73;1.80;;;13.70;11.40;217.30;162935.00;;;;4978962;28;20462;-85
2021/05/21 04:20:42;;;;;;;4.10;2.00;;;13.70;11.40;14.60;69464.00;;;;4986699;28;20518;-86
2021/05/21 04:23:10;;;;;;;3.00;1.60;;;13.70;11.20;14.50;99874.00;;;;5004614;28;20459;-85
2021/05/21 04:25:38;;;;;;;3.30;1.40;;;13.80;11.00;217.30;162913.00;;;;4989664;28;20479;-85
2021/05/21 04:28:06;;;;;;;2.40;1.00;;;13.80;10.70;217.30;163062.00;;;;4978461;28;20522;-85
2021/05/21 04:30:35;;;;;;;1.70;1.30;;;13.80;10.50;217.30;162931.00;;;;4975407;28;20451;-86
2021/05/21 04:33:04;;;;;;;2.70;1.60;;;13.90;10.20;14.90;99779.00;;;;4976576;28;20983;-87
2021/05/21 04:35:32;;;;;;;3.50;1.50;;;13.90;10.30;14.90;99844.00;;;;4983176;28;20503;-85
2021/05/21 04:38:01;;;;;;;4.07;1.70;;;14.00;10.30;52.70;163110.00;;;;4978540;28;20448;-86
2021/05/21 04:40:29;;;;;;;4.20;1.97;;;14.00;9.70;217.30;163128.00;;;;4992283;28;20443;-86
2021/05/21 04:42:57;;;;;;;2.23;1.60;;;14.10;9.90;217.30;163088.00;;;;4995539;28;20451;-85
2021/05/21 04:45:26;;;;;;;2.80;1.20;;;14.10;9.70;15.10;99772.00;;;;4990053;28;20471;-87
2021/05/21 04:47:55;;;;;;;2.40;1.53;;;14.10;9.90;217.30;163235.00;;;;4991261;28;20483;-86
2021/05/21 04:50:23;;;;;;;5.93;1.87;;;14.10;9.80;15.20;99828.00;;;;4993126;28;20984;-84
2021/05/21 04:52:51;;;;;;;3.57;1.67;;;14.10;10.20;217.30;163148.00;;;;4977436;28;20451;-85
2021/05/21 04:55:19;;;;;;;4.30;1.50;;;14.10;9.80;15.30;99858.00;;;;4990299;28;20515;-86
2021/05/21 04:57:50;;;;;;;3.30;1.50;;;14.20;9.80;217.30;163229.00;;;;4992034;28;20454;-85
2021/05/21 05:00:20;;;;;;;3.57;1.83;;;14.20;9.30;52.70;163290.00;;;;4992847;28;20444;-88
2021/05/21 05:02:48;;;;;;;2.57;1.57;;;14.20;9.50;217.30;163187.00;;;;4978229;28;20487;-86
2021/05/21 05:05:17;;;;;;;2.43;1.50;;;14.20;9.90;15.20;99802.00;;;;4998645;28;20455;-86
2021/05/21 05:07:45;;;;;;;3.07;1.40;;;14.20;9.40;52.70;163215.00;;;;5013956;28;20451;-85
2021/05/21 05:10:14;;;;;;;2.67;1.40;;;14.30;9.60;15.50;99810.00;;;;5003191;28;20463;-87
2021/05/21 05:12:42;;;;;;;2.20;1.27;;;14.30;9.50;15.60;99806.00;;;;5003463;28;20446;-86
2021/05/21 05:15:11;;;;;;;2.73;1.50;;;14.40;9.40;15.70;99810.00;;;;5002966;28;20479;-85
2021/05/21 05:17:39;;;;;;;2.80;1.33;;;14.50;8.80;15.60;99841.00;;;;5011635;28;20462;-85
2021/05/21 05:20:09;;;;;;;2.63;1.57;;;14.50;8.80;15.70;99807.00;;;;4994302;28;20459;-85
2021/05/21 05:22:38;;;;;;;3.90;1.53;;;14.60;8.80;217.30;163415.00;;;;4990559;28;20529;-85
2021/05/21 05:25:08;;;;;;;2.10;1.43;;;14.60;8.90;52.70;163481.00;;;;4984649;28;20470;-87
2021/05/21 05:27:36;;;;;;;2.80;1.50;;;14.60;8.50;217.30;163497.00;;;;4986247;28;20927;-87
2021/05/21 05:30:06;;;;;;;2.50;1.40;;;14.60;8.90;15.90;99779.00;;;;5019006;28;20466;-85
2021/05/21 05:32:34;;;;;;;2.13;1.17;;;14.60;8.90;52.70;163546.00;;;;5000597;28;20465;-87
2021/05/21 05:35:03;;;;;;;1.70;1.40;;;14.70;8.60;16.10;99796.00;;;;5012397;28;20489;-84
2021/05/21 05:37:31;;;;;;;3.50;1.80;;;14.80;8.20;217.30;163715.00;;;;4994929;28;20498;-85
2021/05/21 05:40:00;;;;;;;4.20;1.70;;;15.00;7.30;217.30;163683.00;;;;5013887;28;20446;-86
2021/05/21 05:42:28;;;;;;;3.53;1.53;;;15.10;6.50;217.30;163862.00;;;;5002233;28;20509;-85
2021/05/21 05:44:57;;;;;;;1.83;1.10;;;15.20;5.60;16.80;99796.00;;;;4991810;28;20720;-85
2021/05/21 05:47:26;;;;;;;2.03;1.30;;;15.40;4.50;17.00;99783.00;;;;5001267;28;20439;-87
2021/05/21 05:49:54;;;;;;;4.80;1.57;;;15.60;3.70;17.20;99779.00;;;;4999827;28;20455;-84
2021/05/21 05:52:22;;;;;;;2.57;1.40;;;15.80;2.20;217.30;164165.00;;;;4999266;28;20489;-86
2021/05/21 05:54:51;;;;;;;2.73;2.00;;;15.90;1.90;17.40;99783.00;;;;5003204;28;20458;-86
2021/05/21 05:57:20;;;;;;;2.60;1.20;;;16.00;1.30;52.70;164205.00;;;;4997281;28;20443;-85
2021/05/21 05:59:48;;;;;;;3.67;1.30;;;16.10;1.00;217.30;164205.00;;;;4993503;28;20459;-86
2021/05/21 06:02:17;;;;;;;4.37;1.50;;;16.20;1.00;17.50;99730.00;;;;5001681;28;20493;-86
2021/05/21 06:04:45;;;;;;;1.87;1.07;;;16.20;1.00;217.30;164249.00;;;;5013368;28;20436;-86
2021/05/21 06:07:13;;;;;;;3.50;1.60;;;16.30;1.00;17.70;99744.00;;;;5007333;28;20516;-86
2021/05/21 06:09:41;;;;;;;2.77;1.40;;;16.40;1.00;217.30;164385.00;;;;5000308;28;20454;-86
2021/05/21 06:12:10;;;;;;;3.00;1.27;;;16.50;1.00;217.30;164407.00;;;;4995449;28;20442;-85
2021/05/21 06:14:39;;;;;;;2.00;1.17;;;16.60;1.00;17.90;99752.00;;;;5009150;28;20522;-86
2021/05/21 06:17:07;;;;;;;4.13;1.47;;;16.60;1.00;217.30;164447.00;;;;4976332;28;20472;-85
2021/05/21 06:19:36;;;;;;;3.33;1.60;;;16.60;1.00;18.00;99704.00;;;;4975167;28;20486;-85
2021/05/21 06:22:04;;;;;;;3.90;1.30;;;16.70;1.00;18.00;99749.00;;;;5004594;28;21056;-85
2021/05/21 06:24:32;;;;;;;5.50;1.83;;;16.70;1.00;17.50;99664.00;;;;4990004;28;20447;-87
2021/05/21 06:27:16;;;;;;;4.13;1.93;;;16.70;1.00;17.80;99737.00;;;;5006302;28;20450;-86
2021/05/21 06:29:45;;;;;;;1.73;1.30;;;16.70;1.00;17.90;99712.00;;;;4979131;28;20456;-86
2021/05/21 06:32:13;;;;;;;2.90;1.30;;;16.80;1.00;18.00;99707.00;;;;5000277;28;20451;-85
2021/05/21 06:34:42;;;;;;;2.80;1.10;;;16.80;1.00;217.30;164417.00;;;;4970340;28;20460;-85
2021/05/21 06:37:22;;;;;;;3.07;1.10;;;16.80;1.00;52.70;164479.00;;;;4981384;28;20462;-86
2021/05/21 06:40:09;;;;;;;3.30;1.10;;;16.90;1.00;18.20;99714.00;;;;4989969;28;20451;-86
2021/05/21 06:42:37;;;;;;;3.40;1.70;;;17.00;1.00;17.90;99688.00;;;;4990043;28;20490;-86
2021/05/21 06:45:08;;;;;;;7.00;1.27;;;17.00;1.00;18.10;70288.00;;;;5001454;28;20463;-85
2021/05/21 06:47:36;;;;;;;4.00;1.20;;;16.90;1.00;217.30;164497.00;;;;4993784;28;20475;-85
2021/05/21 06:50:06;;;;;;;2.13;1.43;;;16.90;1.00;217.30;164518.00;;;;4978189;28;20454;-85
2021/05/21 06:52:35;;;;;;;1.60;1.00;;;16.80;1.00;18.20;99729.00;;;;4971133;28;20452;-86
2021/05/21 06:55:05;;;;;;;3.10;1.20;;;16.80;1.00;217.30;164552.00;;;;4980352;28;20569;-84
2021/05/21 06:57:34;;;;;;;7.40;1.20;;;16.90;1.00;18.10;99722.00;;;;4988164;28;20448;-85
2021/05/21 07:00:03;;;;;;;4.00;1.20;;;16.90;1.00;217.30;164512.00;;;;4988188;28;20479;-85
2021/05/21 07:02:32;;;;;;;3.00;1.47;;;16.90;1.00;18.20;99730.00;;;;4990728;28;20475;-85
2021/05/21 07:05:01;;;;;;;2.67;1.17;;;16.90;1.00;18.20;99670.00;;;;4992528;28;20474;-86
2021/05/21 07:07:31;;;;;;;2.30;1.50;;;17.00;1.00;18.50;99731.00;;;;4995297;28;20446;-88
2021/05/21 07:10:00;;;;;;;4.30;1.50;;;17.10;1.00;18.20;99672.00;;;;4989258;28;20554;-87
2021/05/21 07:12:29;;;;;;;2.70;1.30;;;17.00;1.00;18.00;99724.00;;;;5004847;28;20486;-85
2021/05/21 07:14:58;;;;;;;2.17;1.00;;;16.80;1.00;18.00;99667.00;;;;5000166;28;20486;-84
2021/05/21 07:17:27;;;;;;;2.27;1.30;;;16.80;1.00;217.30;164540.00;;;;5003092;28;20526;-86
2021/05/21 07:19:56;;;;;;;2.67;1.30;;;16.90;1.00;18.30;99730.00;;;;4986873;28;20497;-86
2021/05/21 07:22:25;;;;;;;2.37;1.10;;;17.00;1.00;18.50;99658.00;;;;4981769;28;20495;-86
2021/05/21 07:24:53;;;;;;;2.93;1.50;;;17.10;1.00;217.30;164745.00;;;;4988148;28;20466;-86
2021/05/21 07:27:22;;;;;;;5.63;1.50;;;17.10;1.00;18.70;70388.00;;;;4989691;28;20479;-86
2021/05/21 07:29:50;;;;;;;1.60;1.40;;;17.20;1.00;18.80;99644.00;;;;4987919;28;20510;-86
2021/05/21 07:32:18;;;;;;;1.83;1.10;;;17.30;1.00;217.30;164705.00;;;;5006788;28;20459;-87
2021/05/21 07:34:46;;;;;;;4.70;1.33;;;17.30;1.00;18.70;99708.00;;;;5009829;28;20444;-83
2021/05/21 07:37:15;;;;;;;4.33;1.30;;;17.30;1.00;18.70;99679.00;;;;4998983;28;20412;-85
2021/05/21 07:39:44;;;;;;;4.10;1.30;;;17.40;1.00;18.90;99687.00;;;;4991209;28;20440;-84
2021/05/21 07:42:13;;;;;;;2.07;1.30;;;17.50;1.00;18.90;99673.00;;;;4986206;28;20469;-85
2021/05/21 07:44:41;;;;;;;4.13;1.67;;;17.50;1.00;19.10;99698.00;;;;4998458;28;20447;-85
2021/05/21 07:47:09;;;;;;;5.33;1.20;;;17.60;1.00;19.40;99623.00;;;;5003909;28;20486;-85
2021/05/21 07:49:42;;;;;;;2.93;1.20;;;17.80;1.00;19.50;99702.00;;;;4979785;28;20936;-85
2021/05/21 07:52:10;;;;;;;2.80;1.27;;;17.90;1.00;19.20;99631.00;;;;4972066;28;20455;-85
2021/05/21 07:54:39;;;;;;;2.60;1.40;;;17.90;1.00;19.40;70567.00;;;;4976319;28;20477;-85
2021/05/21 07:57:08;;;;;;;4.17;1.30;;;17.90;1.00;19.20;99668.00;;;;4992477;28;20436;-86
2021/05/21 07:59:36;;;;;;;2.90;1.10;;;17.80;1.00;217.30;165010.00;;;;4990131;28;20467;-85
2021/05/21 08:02:05;;;;;;;1.80;1.00;;;17.70;1.00;19.10;99695.00;;;;5005547;28;20741;-86
2021/05/21 08:04:33;;;;;;;3.73;1.20;;;17.70;1.00;18.80;99684.00;;;;5003566;28;20505;-86
2021/05/21 08:07:01;;;;;;;2.10;1.30;;;17.60;1.00;19.00;99647.00;;;;5004159;28;20483;-86
2021/05/21 08:09:30;;;;;;;2.00;1.40;;;17.60;1.00;19.10;99645.00;;;;4984525;28;20463;-86
2021/05/21 08:11:59;;;;;;;2.63;1.63;;;17.70;1.00;217.30;165078.00;;;;4994206;28;20486;-85
2021/05/21 08:14:28;;;;;;;2.33;1.10;;;17.80;1.00;19.20;99674.00;;;;4985648;28;20447;-85
2021/05/21 08:16:56;;;;;;;4.30;1.20;;;17.90;1.00;19.50;99631.00;;;;4995471;28;20478;-85
2021/05/21 08:22:37;;;;;;;2.93;1.70;;;18.10;1.00;19.80;99692.00;;;;5063502;22;20518;-91
2021/05/21 08:40:23;;;;;;;9.00;1.83;;;18.20;1.00;19.50;99695.00;;;;5038845;28;20473;-91
2021/05/21 08:42:57;;;;;;;1.70;1.20;;;18.00;1.00;217.30;165072.00;;;;5023250;28;20489;-91
2021/05/21 08:45:34;;;;;;;3.07;1.50;;;17.90;1.00;19.40;99699.00;;;;5023302;28;20468;-89
2021/05/21 08:48:02;;;;;;;3.57;1.23;;;18.00;1.00;19.50;99704.00;;;;5040126;28;20449;-89
2021/05/21 08:50:33;;;;;;;2.17;1.00;;;18.00;1.00;217.30;165044.00;;;;5039818;28;20454;-87
2021/05/21 08:53:01;;;;;;;3.63;1.70;;;18.00;1.00;19.60;99676.00;;;;5023593;28;20602;-91
2021/05/21 08:55:32;;;;;;;4.00;1.67;;;18.00;1.00;19.50;99715.00;;;;5024106;28;20442;-90
2021/05/21 08:58:00;;;;;;;2.27;1.20;;;18.00;1.00;52.70;164977.00;;;;5023290;28;20449;-88
2021/05/21 09:00:30;;;;;;;4.17;1.47;;;18.10;1.00;217.30;165165.00;;;;5023434;28;20442;-89
2021/05/21 09:03:18;;;;;;;4.63;1.77;;;18.20;1.00;19.70;99710.00;;;;5038913;28;20476;-88
2021/05/21 09:06:15;;;;;;;2.43;1.30;;;18.20;1.00;19.50;99682.00;;;;5025616;28;20564;-89
2021/05/21 09:08:48;;;;;;;2.00;1.10;;;18.30;1.00;20.20;99646.00;;;;5030884;28;20438;-89
2021/05/21 09:11:31;;;;;;;2.63;1.13;;;18.70;1.00;20.00;99720.00;;;;5022040;28;20430;-89
2021/05/21 09:14:06;;;;;;;4.10;1.40;;;18.50;1.00;19.80;99679.00;;;;5038316;28;20506;-89
2021/05/21 09:16:38;;;;;;;6.70;1.33;;;18.30;1.00;19.90;99721.00;;;;5023118;28;20536;-90
2021/05/21 09:19:14;;;;;;;4.33;1.70;;;18.40;1.00;19.60;99719.00;;;;5022623;28;20431;-89
2021/05/21 10:01:14;;;;;;;7.73;2.30;;;19.30;1.00;21.00;99708.00;;;;5037121;28;20528;-87
2021/05/21 10:03:45;;;;;;;4.57;1.83;;;19.70;1.00;20.80;99736.00;;;;5044174;28;20532;-85
2021/05/21 10:06:15;;;;;;;8.17;2.00;;;19.40;1.00;20.80;99723.00;;;;5054282;28;20493;-85
2021/05/21 10:08:46;;;;;;;5.50;2.37;;;19.30;1.00;21.50;99727.00;;;;5058312;28;20425;-85
2021/05/21 10:11:16;;;;;;;6.20;1.70;;;19.90;1.00;21.10;99726.00;;;;5053938;28;20436;-85
2021/05/21 10:13:46;;;;;;;5.53;2.10;;;19.80;1.00;21.20;99721.00;;;;5056183;28;20455;-86
2021/05/21 10:16:17;;;;;;;5.40;1.40;;;19.70;1.00;21.30;99701.00;;;;5054594;28;20452;-85
2021/05/21 10:18:46;;;;;;;3.93;1.60;;;19.70;1.00;21.30;99687.00;;;;5046740;28;20433;-85
2021/05/21 10:21:17;;;;;;;11.10;2.80;;;19.70;1.00;21.30;99724.00;;;;5037241;28;20438;-84
2021/05/21 10:23:53;;;;;;;8.67;2.13;;;19.60;1.00;21.20;99745.00;;;;5037501;28;20512;-84
2021/05/21 10:26:33;;;;;;;3.70;1.70;;;19.70;1.00;21.50;99645.00;;;;5038559;28;20455;-84
2021/05/21 10:29:06;;;;;;;8.33;2.10;;;19.90;1.00;21.60;99745.00;;;;5056082;28;20463;-83
2021/05/21 10:31:35;;;;;;;5.43;1.80;;;19.90;1.00;21.60;99729.00;;;;5056795;28;20429;-85
2021/05/21 10:34:24;;;;;;;6.60;2.37;;;19.80;1.00;21.30;99725.00;;;;5050864;28;20445;-87
2021/05/21 10:37:26;;;;;;;7.73;2.07;;;19.70;1.00;21.20;99668.00;;;;5048443;28;20467;-87
2021/05/21 10:40:24;;;;;;;8.23;2.10;;;19.60;1.00;21.10;99701.00;;;;5047593;28;20435;-85
2021/05/21 10:43:16;;;;;;;4.53;1.90;;;19.70;1.00;21.50;99742.00;;;;5032940;28;20533;-85
2021/05/21 10:46:15;;;;;;;7.80;2.03;;;20.10;1.00;21.40;99687.00;;;;5042515;28;20469;-86
2021/05/21 10:48:58;;;;;;;7.20;2.17;;;19.80;1.00;21.80;99728.00;;;;5009454;28;20465;-86
2021/05/21 10:51:28;;;;;;;9.50;2.33;;;20.10;1.00;22.20;99683.00;;;;5008312;28;20450;-86
2021/05/21 10:54:27;;;;;;;7.07;2.20;;;20.50;1.00;22.30;99689.00;;;;5017704;28;20442;-85
2021/05/21 10:57:09;;;;;;;6.27;2.60;;;20.70;1.00;22.50;99731.00;;;;5035530;28;20461;-88
2021/05/21 10:59:54;;;;;;;7.70;2.67;;;20.70;1.00;22.00;99694.00;;;;5037158;28;20508;-85
2021/05/21 11:02:24;;;;;;;6.57;2.00;;;20.30;1.00;22.00;99712.00;;;;5026628;28;20449;-86
2021/05/21 11:04:55;;;;;;;5.07;2.07;;;20.20;1.00;22.30;99685.00;;;;5025701;28;20473;-87
2021/05/21 11:07:34;;;;;;;8.07;2.37;;;20.30;1.00;22.10;99663.00;;;;5026912;28;20456;-87
2021/05/21 11:10:05;;;;;;;6.77;2.30;;;20.20;1.00;22.10;99610.00;;;;5041758;28;20477;-86
2021/05/21 11:12:59;;;;;;;11.83;2.43;;;20.10;1.00;22.30;99672.00;;;;5015256;28;20504;-88
2021/05/21 11:15:39;;;;;;;5.00;2.10;;;20.30;1.00;22.40;99706.00;;;;5038808;28;20472;-86
2021/05/21 11:18:27;;;;;;;5.60;1.67;;;20.50;1.00;22.20;99644.00;;;;5028051;28;20498;-86
2021/05/21 11:21:08;;;;;;;7.07;2.30;;;20.40;1.00;22.30;99707.00;;;;5044229;28;20521;-86
2021/05/21 11:23:39;;;;;;;7.70;2.50;;;20.40;1.00;21.90;99647.00;;;;5058872;28;20985;-85
2021/05/21 11:26:29;;;;;;;8.33;1.97;;;20.20;1.00;21.50;71054.00;;;;5016998;28;20487;-87
2021/05/21 11:29:07;;;;;;;8.80;1.97;;;19.90;1.00;21.40;99670.00;;;;5008735;28;20493;-89
2021/05/21 11:31:38;;;;;;;7.73;2.33;;;19.70;1.00;21.20;99617.00;;;;5215232;22;20786;-87
2021/05/21 11:34:11;;;;;;;4.30;2.13;;;19.70;1.00;217.30;165806.00;;;;5007756;28;20461;-88
2021/05/21 11:36:42;;;;;;;7.60;2.37;;;19.60;1.00;21.30;99679.00;;;;5026968;28;20476;-87
2021/05/21 11:39:11;;;;;;;9.43;2.80;;;19.70;1.00;21.70;99638.00;;;;5009573;28;20455;-88
2021/05/21 11:41:43;;;;;;;6.30;2.40;;;20.10;1.00;21.40;99642.00;;;;5023870;28;20819;-82
2021/05/21 11:44:14;;;;;;;5.17;1.80;;;20.20;1.00;21.80;99683.00;;;;5015537;28;20838;-80
2021/05/21 11:46:45;;;;;;;5.67;2.07;;;20.30;1.00;22.20;99681.00;;;;5008094;28;20474;-81
2021/05/21 11:49:19;;;;;;;10.10;2.23;;;20.50;1.00;21.90;99637.00;;;;5026162;28;20450;-87
2021/05/21 11:52:00;;;;;;;6.40;2.17;;;20.40;1.00;21.80;99625.00;;;;5046641;28;20532;-86
2021/05/21 11:54:30;;;;;;;6.10;1.97;;;20.50;1.00;52.70;166070.00;;;;5017142;28;20453;-84
2021/05/21 11:57:01;;;;;;;6.20;2.00;;;20.50;1.00;21.90;99689.00;;;;5020469;28;20484;-86
2021/05/21 11:59:30;;;;;;;9.87;2.37;;;20.40;1.00;21.60;99629.00;;;;5023568;28;20492;-87
2021/05/21 12:02:02;;;;;;;7.57;1.90;;;20.30;1.00;22.10;99562.00;;;;5035644;28;20472;-80
2021/05/21 12:04:34;;;;;;;5.63;1.93;;;20.50;1.00;21.90;99606.00;;;;5049394;28;20484;-85